createdAt,value
2019-04-16T00:01:32.399Z,18.96
2019-04-16T00:06:52.387Z,18.94
2019-04-16T00:11:55.950Z,18.96
2019-04-16T00:16:57.516Z,18.93
2019-04-16T00:22:00.996Z,18.94
2019-04-16T00:27:03.290Z,18.93
2019-04-16T00:32:09.141Z,18.91
2019-04-16T00:37:10.420Z,18.89
2019-04-16T00:42:12.090Z,18.89
2019-04-16T00:47:13.760Z,18.88
2019-04-16T00:52:15.327Z,18.89
2019-04-16T00:57:17.973Z,18.90
2019-04-16T01:02:20.412Z,18.90
2019-04-16T01:07:22.082Z,18.88
2019-04-16T01:12:23.850Z,18.88
2019-04-16T01:17:25.629Z,18.90
2019-04-16T01:22:27.300Z,18.89
2019-04-16T01:27:36.759Z,18.90
2019-04-16T01:32:57.060Z,18.88
2019-04-16T01:38:16.865Z,18.89
2019-04-16T01:43:19.759Z,18.89
2019-04-16T01:48:21.621Z,18.87
2019-04-16T01:53:23.403Z,18.87
2019-04-16T01:58:24.933Z,18.88
2019-04-16T02:03:26.699Z,18.89
2019-04-16T02:08:31.142Z,18.91
2019-04-16T02:13:32.775Z,18.98
2019-04-16T02:18:34.518Z,18.98
2019-04-16T02:23:36.082Z,18.98
2019-04-16T02:28:37.660Z,19.00
2019-04-16T02:33:39.323Z,19.01
2019-04-16T02:38:46.380Z,19.00
2019-04-16T02:43:44.415Z,18.99
2019-04-16T02:48:49.939Z,18.98
2019-04-16T02:53:54.479Z,19.00
2019-04-16T02:58:57.104Z,19.00
2019-04-16T03:04:13.010Z,18.98
2019-04-16T03:09:15.695Z,18.94
2019-04-16T03:14:17.579Z,18.92
2019-04-16T03:19:21.142Z,18.91
2019-04-16T03:24:22.910Z,18.91
2019-04-16T03:29:24.477Z,18.90
2019-04-16T03:34:26.203Z,18.91
2019-04-16T03:39:27.885Z,18.89
2019-04-16T03:44:29.554Z,18.88
2019-04-16T03:49:31.331Z,18.91
2019-04-16T03:54:33.195Z,18.89
2019-04-16T03:59:34.973Z,18.70
2019-04-16T04:04:36.747Z,18.62
2019-04-16T04:09:38.314Z,18.62
2019-04-16T04:14:39.970Z,18.55
2019-04-16T04:19:43.513Z,18.79
2019-04-16T04:24:45.477Z,18.98
2019-04-16T04:29:48.161Z,19.05
2019-04-16T04:34:49.842Z,19.15
2019-04-16T04:39:51.520Z,19.27
2019-04-16T04:44:53.154Z,19.32
2019-04-16T04:49:54.726Z,19.13
2019-04-16T04:54:56.314Z,19.15
2019-04-16T04:59:57.881Z,19.25
2019-04-16T05:05:01.397Z,19.14
2019-04-16T05:10:07.538Z,18.70
2019-04-16T05:15:08.281Z,18.70
2019-04-16T05:20:14.839Z,18.67
2019-04-16T05:25:13.514Z,18.62
2019-04-16T05:30:19.950Z,18.58
2019-04-16T05:35:18.909Z,18.54
2019-04-16T05:40:20.677Z,18.56
2019-04-16T05:45:22.693Z,18.54
2019-04-16T05:50:28.493Z,18.54
2019-04-16T05:55:35.621Z,18.55
2019-04-16T06:00:41.691Z,18.58
2019-04-16T06:05:43.750Z,18.56
2019-04-16T06:10:49.947Z,18.57
2019-04-16T06:15:52.967Z,18.58
2019-04-16T06:20:54.687Z,18.57
2019-04-16T06:26:16.631Z,18.56
2019-04-16T06:31:39.408Z,18.54
2019-04-16T06:36:45.157Z,18.56
2019-04-16T06:41:55.785Z,18.58
2019-04-16T06:47:10.590Z,18.58
2019-04-16T06:52:15.876Z,18.61
2019-04-16T06:57:18.989Z,18.65
2019-04-16T07:02:28.480Z,18.68
2019-04-16T07:07:39.584Z,18.73
2019-04-16T07:12:38.663Z,18.75
2019-04-16T07:17:40.390Z,18.79
2019-04-16T07:22:42.217Z,18.78
2019-04-16T07:27:45.843Z,18.81
2019-04-16T07:33:05.535Z,18.81
2019-04-16T07:38:12.017Z,18.83
2019-04-16T07:43:32.019Z,18.83
2019-04-16T07:48:36.557Z,18.82
2019-04-16T07:53:56.463Z,18.83
2019-04-16T07:59:01.328Z,18.83
2019-04-16T08:04:03.179Z,18.83
2019-04-16T08:09:06.174Z,18.84
2019-04-16T08:14:09.816Z,18.84
2019-04-16T08:19:12.148Z,18.86
2019-04-16T08:24:26.409Z,18.86
2019-04-16T08:29:28.579Z,18.88
2019-04-16T08:34:30.197Z,18.89
2019-04-16T08:39:31.762Z,18.91
2019-04-16T08:44:35.812Z,18.95
2019-04-16T08:49:36.889Z,18.93
2019-04-16T08:54:38.589Z,18.93
2019-04-16T08:59:42.615Z,18.93
2019-04-16T09:04:43.810Z,18.98
2019-04-16T09:09:47.327Z,19.02
2019-04-16T09:14:54.941Z,18.99
2019-04-16T09:19:54.868Z,19.00
2019-04-16T09:24:59.651Z,19.06
2019-04-16T09:30:10.228Z,19.04
2019-04-16T09:35:20.317Z,19.03
2019-04-16T09:40:30.663Z,19.05
2019-04-16T09:45:33.899Z,19.04
2019-04-16T09:50:36.217Z,19.04
2019-04-16T09:55:37.986Z,19.02
2019-04-16T10:00:41.421Z,19.01
2019-04-16T10:05:43.170Z,19.02
2019-04-16T10:10:44.913Z,19.02
2019-04-16T10:15:47.691Z,19.04
2019-04-16T10:20:49.545Z,19.05
2019-04-16T10:25:51.318Z,19.04
2019-04-16T10:30:54.401Z,19.04
2019-04-16T10:35:57.534Z,19.08
2019-04-16T10:41:10.546Z,19.07
2019-04-16T10:46:27.588Z,19.04
2019-04-16T10:51:36.830Z,19.05
2019-04-16T10:56:58.348Z,19.04
2019-04-16T11:02:02.102Z,19.06
2019-04-16T11:07:11.419Z,19.04
2019-04-16T11:12:13.096Z,19.02
2019-04-16T11:17:16.205Z,19.06
2019-04-16T11:22:18.060Z,19.06
2019-04-16T11:27:19.845Z,19.04
2019-04-16T11:32:25.985Z,19.07
2019-04-16T11:37:27.849Z,19.05
2019-04-16T11:42:29.424Z,19.05
2019-04-16T11:47:33.992Z,19.08
2019-04-16T11:52:34.830Z,19.07
2019-04-16T11:57:36.629Z,19.06
2019-04-16T12:02:49.123Z,19.07
2019-04-16T12:08:09.524Z,19.07
2019-04-16T12:13:19.285Z,19.04
2019-04-16T12:18:25.764Z,19.01
2019-04-16T12:23:29.985Z,19.02
2019-04-16T12:28:46.616Z,19.03
2019-04-16T12:33:52.701Z,19.01
2019-04-16T12:38:54.360Z,19.00
2019-04-16T12:43:58.927Z,19.02
2019-04-16T12:49:17.677Z,18.99
2019-04-16T12:54:33.340Z,19.01
2019-04-16T12:59:55.010Z,18.99
2019-04-16T13:05:01.594Z,19.00
2019-04-16T13:10:07.381Z,18.96
2019-04-16T13:15:14.952Z,18.95
2019-04-16T13:20:31.592Z,18.96
2019-04-16T13:25:35.218Z,18.93
2019-04-16T13:30:37.084Z,18.93
2019-04-16T13:35:38.776Z,18.94
2019-04-16T13:40:41.474Z,18.93
2019-04-16T13:45:43.527Z,18.91
2019-04-16T13:50:47.140Z,19.20
2019-04-16T13:56:08.127Z,19.36
2019-04-16T14:01:14.547Z,19.42
2019-04-16T14:06:16.329Z,19.43
2019-04-16T14:11:19.684Z,19.47
2019-04-16T14:16:21.514Z,19.49
2019-04-16T14:21:23.584Z,19.48
2019-04-16T14:26:25.264Z,19.47
2019-04-16T14:31:27.352Z,19.52
2019-04-16T14:36:29.321Z,19.52
2019-04-16T14:41:31.478Z,19.50
2019-04-16T14:46:33.276Z,19.53
2019-04-16T14:51:34.942Z,19.54
2019-04-16T14:56:41.116Z,19.58
2019-04-16T15:01:50.272Z,19.56
2019-04-16T15:06:53.776Z,19.55
2019-04-16T15:12:02.167Z,19.51
2019-04-16T15:17:03.469Z,19.54
2019-04-16T15:22:23.339Z,19.48
2019-04-16T15:27:31.664Z,19.55
2019-04-16T15:32:41.825Z,19.59
2019-04-16T15:37:45.561Z,19.59
2019-04-16T15:42:50.424Z,19.77
2019-04-16T15:47:54.292Z,19.89
2019-04-16T15:53:00.534Z,19.94
2019-04-16T15:58:07.763Z,19.83
2019-04-16T16:03:28.150Z,19.71
2019-04-16T16:08:47.018Z,19.67
2019-04-16T16:13:48.892Z,19.63
2019-04-16T16:18:50.770Z,19.75
2019-04-16T16:23:52.440Z,19.83
2019-04-16T16:28:54.539Z,19.85
2019-04-16T16:33:57.207Z,19.85
2019-04-16T16:38:59.330Z,19.89
2019-04-16T16:44:01.179Z,19.93
2019-04-16T16:49:03.276Z,19.94
2019-04-16T16:54:06.938Z,19.98
2019-04-16T16:59:13.276Z,19.96
2019-04-16T17:04:16.739Z,19.93
2019-04-16T17:09:20.870Z,19.91
2019-04-16T17:14:22.653Z,19.95
2019-04-16T17:19:24.526Z,19.97
2019-04-16T17:24:28.015Z,20.01
2019-04-16T17:29:29.814Z,20.03
2019-04-16T17:34:31.759Z,19.99
2019-04-16T17:39:42.254Z,20.06
2019-04-16T17:44:50.287Z,19.98
2019-04-16T17:50:02.523Z,20.03
2019-04-16T17:55:08.933Z,19.98
2019-04-16T18:00:19.468Z,19.93
2019-04-16T18:05:23.925Z,20.01
2019-04-16T18:10:36.529Z,19.94
2019-04-16T18:15:42.745Z,19.93
2019-04-16T18:20:59.635Z,19.97
2019-04-16T18:26:13.285Z,20.05
2019-04-16T18:31:23.364Z,20.01
2019-04-16T18:36:27.576Z,19.93
2019-04-16T18:41:31.945Z,19.93
2019-04-16T18:46:33.547Z,19.93
2019-04-16T18:51:35.354Z,19.86
2019-04-16T18:56:37.003Z,19.63
2019-04-16T19:01:40.649Z,19.55
2019-04-16T19:06:42.386Z,19.51
2019-04-16T19:11:45.220Z,19.42
2019-04-16T19:16:47.100Z,19.42
2019-04-16T19:21:52.210Z,19.36
2019-04-16T19:26:52.654Z,19.34
2019-04-16T19:31:56.906Z,19.32
2019-04-16T19:36:59.671Z,19.29
2019-04-16T19:42:02.512Z,19.27
2019-04-16T19:47:04.203Z,19.25
2019-04-16T19:52:06.002Z,19.24
2019-04-16T19:57:08.021Z,19.23
2019-04-16T20:02:10.000Z,19.22
2019-04-16T20:07:11.781Z,19.22
2019-04-16T20:12:13.342Z,19.20
2019-04-16T20:17:15.119Z,19.18
2019-04-16T20:22:16.904Z,19.15
2019-04-16T20:27:19.695Z,19.12
2019-04-16T20:32:21.989Z,19.11
2019-04-16T20:37:23.765Z,19.15
2019-04-16T20:42:25.432Z,19.09
2019-04-16T20:47:27.204Z,19.07
2019-04-16T20:52:30.830Z,19.07
2019-04-16T20:57:32.595Z,19.13
2019-04-16T21:02:34.331Z,19.14
2019-04-16T21:07:36.141Z,19.15
2019-04-16T21:12:37.905Z,19.15
2019-04-16T21:17:39.570Z,19.13
2019-04-16T21:22:41.249Z,19.11
2019-04-16T21:27:44.761Z,19.09
2019-04-16T21:32:48.726Z,19.18
2019-04-16T21:37:58.669Z,19.20
2019-04-16T21:43:00.492Z,19.20
2019-04-16T21:48:02.301Z,19.18
2019-04-16T21:53:04.080Z,19.18
2019-04-16T21:58:05.819Z,19.19
2019-04-16T22:03:12.336Z,19.16
2019-04-16T22:08:14.110Z,19.18
2019-04-16T22:13:19.149Z,19.15
2019-04-16T22:18:19.606Z,19.14
2019-04-16T22:23:21.389Z,19.15
2019-04-16T22:28:23.062Z,19.15
2019-04-16T22:33:24.707Z,19.15
2019-04-16T22:38:28.209Z,19.13
2019-04-16T22:43:34.604Z,19.12
2019-04-16T22:48:36.386Z,19.14
2019-04-16T22:53:38.160Z,19.13
2019-04-16T22:58:49.863Z,19.12
2019-04-16T23:03:53.355Z,19.13
2019-04-16T23:08:55.254Z,19.12
2019-04-16T23:13:57.090Z,19.14
2019-04-16T23:18:59.168Z,19.14
2019-04-16T23:24:01.222Z,19.13
2019-04-16T23:29:04.122Z,19.13
2019-04-16T23:34:06.968Z,19.13
2019-04-16T23:39:08.834Z,19.11
2019-04-16T23:44:22.698Z,19.12
2019-04-16T23:49:43.209Z,19.11
2019-04-16T23:54:44.899Z,19.11
